createdAt,value
2023-05-18T00:00:46.680Z,100645.59
2023-05-18T00:03:14.483Z,100647.03
2023-05-18T00:05:42.806Z,100645.94
2023-05-18T00:08:10.482Z,100631.22
2023-05-18T00:10:39.458Z,100635.34
2023-05-18T00:13:08.645Z,100634.13
2023-05-18T00:15:36.209Z,100632.25
2023-05-18T00:18:03.888Z,100632.72
2023-05-18T00:20:31.541Z,100621.38
2023-05-18T00:23:00.543Z,100621.22
2023-05-18T00:25:28.496Z,100626.19
2023-05-18T00:27:57.693Z,100625.88
2023-05-18T00:30:25.674Z,100622.22
2023-05-18T00:32:53.335Z,100624.53
2023-05-18T00:35:21.384Z,100619.28
2023-05-18T00:37:49.262Z,100623.66
2023-05-18T00:40:17.460Z,100618.38
2023-05-18T00:42:45.161Z,100617.44
2023-05-18T00:45:14.124Z,100625.84
2023-05-18T00:47:41.808Z,100624.63
2023-05-18T00:50:10.909Z,100621.75
2023-05-18T00:52:38.793Z,100620.63
2023-05-18T00:55:08.008Z,100613.59
2023-05-18T00:57:36.699Z,100621.94
2023-05-18T01:00:07.250Z,100620.88
2023-05-18T01:02:37.075Z,100620.72
2023-05-18T01:05:04.922Z,100608.59
2023-05-18T01:07:33.418Z,100614.41
2023-05-18T01:10:01.261Z,100612.41
2023-05-18T01:12:33.860Z,100616.41
2023-05-18T01:15:08.647Z,100618.06
2023-05-18T01:17:52.373Z,100615.34
2023-05-18T01:20:34.013Z,100615.03
2023-05-18T01:23:20.596Z,100613.06
2023-05-18T01:25:55.813Z,100614.66
2023-05-18T01:28:31.403Z,100611.06
2023-05-18T01:31:00.161Z,100618.66
2023-05-18T01:33:27.885Z,100610.81
2023-05-18T01:35:55.570Z,100611.78
2023-05-18T01:38:25.106Z,100616.91
2023-05-18T01:41:01.098Z,100611.59
2023-05-18T01:47:32.317Z,100607.13
2023-05-18T01:50:04.864Z,100614.72
2023-05-18T01:52:37.186Z,100606.16
2023-05-18T01:55:06.272Z,100604.41
2023-05-18T01:57:37.356Z,100608.66
2023-05-18T02:00:07.940Z,100605.03
2023-05-18T02:02:46.182Z,100605.22
2023-05-18T02:05:16.728Z,100606.00
2023-05-18T02:07:47.276Z,100601.53
2023-05-18T02:10:15.501Z,100601.22
2023-05-18T02:12:43.256Z,100600.06
2023-05-18T02:15:11.487Z,100601.56
2023-05-18T02:17:39.174Z,100605.63
2023-05-18T02:20:10.117Z,100596.03
2023-05-18T02:22:37.922Z,100596.81
2023-05-18T02:25:07.200Z,100598.25
2023-05-18T02:27:36.628Z,100594.56
2023-05-18T02:30:05.156Z,100598.25
2023-05-18T02:32:38.199Z,100597.38
2023-05-18T02:35:09.610Z,100594.84
2023-05-18T02:37:40.061Z,100598.81
2023-05-18T02:40:12.038Z,100600.41
2023-05-18T02:42:41.414Z,100602.88
2023-05-18T02:45:10.039Z,100596.00
2023-05-18T02:47:37.758Z,100598.47
2023-05-18T02:50:09.105Z,100593.28
2023-05-18T02:52:36.980Z,100588.09
2023-05-18T02:55:05.836Z,100589.50
2023-05-18T02:57:56.853Z,100590.28
2023-05-18T03:00:32.823Z,100590.13
2023-05-18T03:03:01.900Z,100585.63
2023-05-18T03:05:31.168Z,100585.56
2023-05-18T03:07:58.906Z,100585.28
2023-05-18T03:10:26.565Z,100585.22
2023-05-18T03:12:54.233Z,100588.38
2023-05-18T03:15:21.988Z,100586.34
2023-05-18T03:17:51.719Z,100589.78
2023-05-18T03:20:19.861Z,100591.44
2023-05-18T03:22:48.876Z,100594.81
2023-05-18T03:25:16.537Z,100594.97
2023-05-18T03:27:44.240Z,100596.38
2023-05-18T03:30:14.035Z,100589.50
2023-05-18T03:32:41.873Z,100595.47
2023-05-18T03:35:10.743Z,100594.59
2023-05-18T03:37:38.487Z,100601.31
2023-05-18T03:40:12.873Z,100597.97
2023-05-18T03:42:42.061Z,100596.19
2023-05-18T03:45:10.991Z,100599.53
2023-05-18T03:47:39.719Z,100607.16
2023-05-18T03:50:08.797Z,100609.56
2023-05-18T03:52:37.039Z,100611.13
2023-05-18T03:55:07.720Z,100611.13
2023-05-18T03:57:36.741Z,100609.38
2023-05-18T04:00:08.747Z,100607.63
2023-05-18T04:02:44.949Z,100614.31
2023-05-18T04:05:15.281Z,100612.72
2023-05-18T04:07:46.467Z,100611.91
2023-05-18T04:10:17.089Z,100623.78
2023-05-18T04:12:46.046Z,100617.81
2023-05-18T04:15:14.544Z,100621.16
2023-05-18T04:17:45.330Z,100622.91
2023-05-18T04:20:14.400Z,100626.41
2023-05-18T04:22:46.565Z,100630.63
2023-05-18T04:25:14.770Z,100637.69
2023-05-18T04:27:45.366Z,100646.22
2023-05-18T04:30:18.673Z,100642.88
2023-05-18T04:32:46.401Z,100639.09
2023-05-18T04:35:14.131Z,100649.38
2023-05-18T04:37:42.775Z,100642.78
2023-05-18T04:40:17.147Z,100645.25
2023-05-18T04:42:47.691Z,100654.94
2023-05-18T04:45:21.904Z,100647.38
2023-05-18T04:47:53.554Z,100645.81
2023-05-18T04:50:24.454Z,100652.81
2023-05-18T04:52:52.813Z,100656.38
2023-05-18T04:55:26.300Z,100651.25
2023-05-18T04:57:57.916Z,100647.91
2023-05-18T05:00:29.272Z,100659.34
2023-05-18T05:02:57.727Z,100651.00
2023-05-18T05:05:26.794Z,100659.53
2023-05-18T05:07:55.616Z,100659.81
2023-05-18T05:10:23.767Z,100661.13
2023-05-18T05:12:52.345Z,100656.53
2023-05-18T05:15:21.049Z,100658.66
2023-05-18T05:17:52.277Z,100654.06
2023-05-18T05:20:20.213Z,100654.25
2023-05-18T05:22:48.103Z,100652.13
2023-05-18T05:25:18.836Z,100650.88
2023-05-18T05:27:46.724Z,100647.19
2023-05-18T05:30:14.812Z,100654.53
2023-05-18T05:32:44.247Z,100649.94
2023-05-18T05:35:13.452Z,100652.19
2023-05-18T05:37:42.266Z,100647.00
2023-05-18T05:40:11.378Z,100656.03
2023-05-18T05:42:44.151Z,100655.31
2023-05-18T05:45:11.965Z,100655.78
2023-05-18T05:47:50.616Z,100658.19
2023-05-18T05:50:21.519Z,100657.88
2023-05-18T05:52:51.008Z,100659.28
2023-05-18T05:55:19.961Z,100654.09
2023-05-18T05:57:47.635Z,100650.63
2023-05-18T06:00:15.861Z,100652.22
2023-05-18T06:02:49.395Z,100655.69
2023-05-18T06:05:25.269Z,100659.41
2023-05-18T06:07:55.351Z,100657.88
2023-05-18T06:10:23.390Z,100651.41
2023-05-18T06:12:51.064Z,100643.97
2023-05-18T06:15:20.152Z,100655.75
2023-05-18T06:17:47.829Z,100653.06
2023-05-18T06:20:16.594Z,100667.66
2023-05-18T06:22:45.866Z,100664.66
2023-05-18T06:25:36.464Z,100662.34
2023-05-18T06:28:26.994Z,100657.94
2023-05-18T06:31:00.329Z,100659.94
2023-05-18T06:33:36.843Z,100663.41
2023-05-18T06:36:04.971Z,100658.16
2023-05-18T06:38:34.135Z,100661.31
2023-05-18T06:41:02.453Z,100657.59
2023-05-18T06:43:30.150Z,100664.16
2023-05-18T06:46:04.707Z,100661.88
2023-05-18T06:48:38.593Z,100658.09
2023-05-18T06:51:06.243Z,100657.47
2023-05-18T06:53:35.559Z,100662.84
2023-05-18T06:56:04.755Z,100658.03
2023-05-18T06:58:32.667Z,100660.94
2023-05-18T07:01:04.265Z,100656.91
2023-05-18T07:03:32.522Z,100657.13
2023-05-18T07:06:00.280Z,100662.72
2023-05-18T07:08:28.131Z,100665.53
2023-05-18T07:10:58.020Z,100660.75
2023-05-18T07:13:25.896Z,100655.72
2023-05-18T07:15:53.628Z,100666.25
2023-05-18T07:18:21.284Z,100662.25
2023-05-18T07:20:48.907Z,100660.94
2023-05-18T07:23:16.526Z,100657.94
2023-05-18T07:25:44.146Z,100658.84
2023-05-18T07:28:13.211Z,100654.63
2023-05-18T07:30:40.782Z,100658.13
2023-05-18T07:33:08.462Z,100652.16
2023-05-18T07:35:36.165Z,100657.47
2023-05-18T07:38:03.819Z,100658.34
2023-05-18T07:40:31.521Z,100651.41
2023-05-18T07:42:59.125Z,100649.06
2023-05-18T07:45:28.214Z,100647.91
2023-05-18T07:47:55.951Z,100657.22
2023-05-18T07:50:23.998Z,100652.31
2023-05-18T07:52:51.577Z,100659.94
2023-05-18T07:55:19.681Z,100655.47
2023-05-18T07:57:47.346Z,100655.53
2023-05-18T08:00:17.190Z,100651.16
2023-05-18T08:02:47.940Z,100650.59
2023-05-18T08:05:15.752Z,100649.78
2023-05-18T08:07:43.446Z,100649.91
2023-05-18T08:10:12.024Z,100644.88
2023-05-18T08:12:39.661Z,100653.38
2023-05-18T08:15:09.071Z,100654.63
2023-05-18T08:17:36.726Z,100657.22
2023-05-18T08:20:08.226Z,100646.03
2023-05-18T08:22:36.256Z,100645.19
2023-05-18T08:25:04.114Z,100641.22
2023-05-18T08:27:31.832Z,100635.25
2023-05-18T08:29:59.427Z,100634.53
2023-05-18T08:32:27.715Z,100641.88
2023-05-18T08:34:55.454Z,100633.50
2023-05-18T08:37:29.056Z,100630.16
2023-05-18T08:39:56.944Z,100627.72
2023-05-18T08:42:38.041Z,100635.78
2023-05-18T08:45:22.105Z,100628.91
2023-05-18T08:47:51.292Z,100625.75
2023-05-18T08:50:24.110Z,100622.63
2023-05-18T08:52:56.873Z,100619.47
2023-05-18T08:55:24.995Z,100611.88
2023-05-18T08:57:56.781Z,100617.16
2023-05-18T09:00:25.016Z,100611.25
2023-05-18T09:02:52.959Z,100611.38
2023-05-18T09:05:21.840Z,100616.03
2023-05-18T09:07:51.062Z,100606.84
2023-05-18T09:10:20.102Z,100602.59
2023-05-18T09:12:49.794Z,100603.81
2023-05-18T09:15:18.380Z,100602.22
2023-05-18T09:17:46.077Z,100615.34
2023-05-18T09:20:13.921Z,100607.59
2023-05-18T09:22:42.912Z,100608.56
2023-05-18T09:25:14.002Z,100604.50
2023-05-18T09:27:43.692Z,100610.03
2023-05-18T09:30:12.363Z,100607.41
2023-05-18T09:32:40.318Z,100608.47
2023-05-18T09:35:09.352Z,100610.31
2023-05-18T09:37:37.444Z,100603.69
2023-05-18T09:40:07.900Z,100599.44
2023-05-18T09:42:39.202Z,100599.59
2023-05-18T09:45:18.780Z,100598.13
2023-05-18T09:47:46.565Z,100590.56
2023-05-18T09:50:14.439Z,100595.97
2023-05-18T09:52:43.284Z,100584.00
2023-05-18T09:55:12.149Z,100597.03
2023-05-18T09:57:41.550Z,100598.00
2023-05-18T10:00:12.620Z,100594.69
2023-05-18T10:02:41.692Z,100575.72
2023-05-18T10:05:20.319Z,100583.63
2023-05-18T10:07:48.631Z,100581.22
2023-05-18T10:10:19.504Z,100584.00
2023-05-18T10:12:47.403Z,100588.44
2023-05-18T10:15:17.999Z,100586.78
2023-05-18T10:17:47.020Z,100578.19
2023-05-18T10:20:18.417Z,100579.94
2023-05-18T10:22:47.729Z,100573.94
2023-05-18T10:25:19.411Z,100586.13
2023-05-18T10:27:51.170Z,100581.84
2023-05-18T10:30:22.798Z,100578.44
2023-05-18T10:32:52.307Z,100576.72
2023-05-18T10:35:21.711Z,100563.66
2023-05-18T10:37:51.160Z,100578.44
2023-05-18T10:40:20.365Z,100566.28
2023-05-18T10:42:49.877Z,100565.44
2023-05-18T10:45:17.596Z,100562.81
2023-05-18T10:47:53.523Z,100564.56
2023-05-18T10:50:21.750Z,100576.72
2023-05-18T10:52:50.187Z,100566.25
2023-05-18T10:55:18.690Z,100567.97
2023-05-18T10:57:50.888Z,100565.38
2023-05-18T11:00:20.201Z,100555.78
2023-05-18T11:02:51.801Z,100554.06
2023-05-18T11:05:25.520Z,100554.97
2023-05-18T11:08:00.830Z,100551.44
2023-05-18T11:10:35.134Z,100552.28
2023-05-18T11:13:03.163Z,100552.22
2023-05-18T11:16:00.686Z,100547.88
2023-05-18T11:18:36.321Z,100546.19
2023-05-18T11:21:04.025Z,100548.78
2023-05-18T11:23:33.006Z,100550.44
2023-05-18T11:26:04.580Z,100540.88
2023-05-18T11:28:33.534Z,100545.09
2023-05-18T11:31:01.495Z,100545.06
2023-05-18T11:33:31.113Z,100541.44
2023-05-18T11:36:02.479Z,100539.50
2023-05-18T11:38:54.084Z,100529.06
2023-05-18T11:41:33.354Z,100527.25
2023-05-18T11:44:15.951Z,100514.47
2023-05-18T11:46:53.691Z,100522.31
2023-05-18T11:49:24.895Z,100522.09
2023-05-18T11:52:08.935Z,100523.41
2023-05-18T11:54:41.976Z,100522.28
2023-05-18T11:57:11.106Z,100517.59
2023-05-18T11:59:41.516Z,100510.69
2023-05-18T12:02:11.603Z,100515.84
2023-05-18T12:04:51.078Z,100522.34
2023-05-18T12:07:20.745Z,100528.06
2023-05-18T12:09:49.736Z,100511.94
2023-05-18T12:12:20.501Z,100522.81
2023-05-18T12:14:55.373Z,100516.53
2023-05-18T12:17:24.207Z,100511.94
2023-05-18T12:19:53.283Z,100518.16
2023-05-18T12:22:21.329Z,100497.13
2023-05-18T12:24:52.586Z,100504.94
2023-05-18T12:27:22.852Z,100488.97
2023-05-18T12:29:50.933Z,100496.66
2023-05-18T12:32:18.739Z,100489.56
2023-05-18T12:34:46.455Z,100499.28
2023-05-18T12:37:15.738Z,100491.09
2023-05-18T12:39:43.352Z,100498.88
2023-05-18T12:42:15.990Z,100487.44
2023-05-18T12:44:46.535Z,100488.09
2023-05-18T12:47:14.598Z,100479.94
2023-05-18T12:49:43.598Z,100484.94
2023-05-18T12:52:12.974Z,100485.44
2023-05-18T12:54:55.029Z,100477.38
2023-05-18T12:57:26.419Z,100480.97
2023-05-18T12:59:55.268Z,100467.50
2023-05-18T13:02:31.005Z,100468.84
2023-05-18T13:05:07.280Z,100466.91
2023-05-18T13:07:37.307Z,100465.75
2023-05-18T13:10:11.904Z,100462.09
2023-05-18T13:12:41.176Z,100471.84
2023-05-18T13:15:16.582Z,100474.66
2023-05-18T13:17:58.768Z,100467.53
2023-05-18T13:20:32.897Z,100472.38
2023-05-18T13:23:04.307Z,100442.41
2023-05-18T13:25:33.926Z,100453.63
2023-05-18T13:28:02.219Z,100466.59
2023-05-18T13:30:30.013Z,100472.88
2023-05-18T13:32:58.574Z,100461.53
2023-05-18T13:35:27.013Z,100458.59
2023-05-18T13:37:54.743Z,100456.88
2023-05-18T13:40:25.260Z,100455.59
2023-05-18T13:42:54.329Z,100446.44
2023-05-18T13:45:22.417Z,100457.13
2023-05-18T13:47:51.579Z,100450.88
2023-05-18T13:50:19.422Z,100455.19
2023-05-18T13:52:47.600Z,100445.81
2023-05-18T13:55:15.357Z,100455.38
2023-05-18T13:57:43.180Z,100436.34
2023-05-18T14:00:13.976Z,100439.31
2023-05-18T14:02:42.166Z,100439.94
2023-05-18T14:05:10.449Z,100429.66
2023-05-18T14:07:38.551Z,100419.75
2023-05-18T14:10:07.681Z,100424.69
2023-05-18T14:12:35.663Z,100429.19
2023-05-18T14:15:03.883Z,100414.53
2023-05-18T14:17:33.455Z,100423.97
2023-05-18T14:20:01.409Z,100414.34
2023-05-18T14:22:30.480Z,100427.19
2023-05-18T14:24:58.441Z,100421.75
2023-05-18T14:27:26.042Z,100410.63
2023-05-18T14:29:53.672Z,100409.25
2023-05-18T14:32:21.642Z,100395.56
2023-05-18T14:34:54.117Z,100402.38
2023-05-18T14:37:21.903Z,100404.50
2023-05-18T14:39:49.672Z,100399.72
2023-05-18T14:42:17.424Z,100400.75
2023-05-18T14:44:45.087Z,100405.09
2023-05-18T14:47:12.793Z,100383.84
2023-05-18T14:49:40.590Z,100388.28
2023-05-18T14:52:10.260Z,100386.84
2023-05-18T14:54:37.853Z,100390.81
2023-05-18T14:57:05.763Z,100391.63
2023-05-18T14:59:33.387Z,100380.72
2023-05-18T15:02:01.130Z,100389.34
2023-05-18T15:04:28.700Z,100396.88
2023-05-18T15:06:56.452Z,100398.22
2023-05-18T15:09:26.814Z,100390.44
2023-05-18T15:11:54.761Z,100383.44
2023-05-18T15:14:22.350Z,100376.84
2023-05-18T15:16:49.980Z,100392.22
2023-05-18T15:19:17.571Z,100381.59
2023-05-18T15:21:45.266Z,100381.00
2023-05-18T15:24:12.972Z,100386.78
2023-05-18T15:26:41.977Z,100381.88
2023-05-18T15:29:09.590Z,100370.81
2023-05-18T15:31:39.730Z,100368.75
2023-05-18T15:34:07.684Z,100361.75
2023-05-18T15:36:36.510Z,100356.75
2023-05-18T15:39:04.888Z,100361.28
2023-05-18T15:41:34.447Z,100358.44
2023-05-18T15:44:03.909Z,100372.78
2023-05-18T15:46:34.642Z,100367.50
2023-05-18T15:49:02.880Z,100357.56
2023-05-18T15:51:30.897Z,100363.72
2023-05-18T15:53:58.568Z,100371.38
2023-05-18T15:56:26.484Z,100359.53
2023-05-18T15:58:54.072Z,100368.06
2023-05-18T16:01:23.056Z,100363.31
2023-05-18T16:03:50.946Z,100354.84
2023-05-18T16:06:18.861Z,100357.03
2023-05-18T16:08:46.720Z,100361.16
2023-05-18T16:11:14.356Z,100355.25
2023-05-18T16:13:41.954Z,100349.97
2023-05-18T16:16:10.420Z,100369.16
2023-05-18T16:18:39.449Z,100361.97
2023-05-18T16:21:07.154Z,100361.75
2023-05-18T16:23:34.889Z,100361.38
2023-05-18T16:26:05.232Z,100360.22
2023-05-18T16:28:33.139Z,100354.91
2023-05-18T16:31:00.796Z,100354.91
2023-05-18T16:33:28.371Z,100363.03
2023-05-18T16:35:58.217Z,100364.59
2023-05-18T16:38:26.057Z,100366.69
2023-05-18T16:40:53.665Z,100353.38
2023-05-18T16:43:21.332Z,100350.22
2023-05-18T16:45:49.025Z,100353.44
2023-05-18T16:48:16.634Z,100353.69
2023-05-18T16:50:44.236Z,100359.63
2023-05-18T16:53:13.239Z,100367.00
2023-05-18T16:55:41.056Z,100353.75
2023-05-18T16:58:08.848Z,100369.28
2023-05-18T17:00:36.494Z,100361.28
2023-05-18T17:03:05.341Z,100358.97
2023-05-18T17:05:34.518Z,100372.34
2023-05-18T17:08:02.203Z,100371.22
2023-05-18T17:10:34.465Z,100365.38
2023-05-18T17:13:02.150Z,100370.25
2023-05-18T17:15:30.556Z,100365.38
2023-05-18T17:17:58.644Z,100369.63
2023-05-18T17:20:26.458Z,100361.03
2023-05-18T17:22:54.118Z,100366.19
2023-05-18T17:25:21.692Z,100361.09
2023-05-18T17:27:50.864Z,100368.38
2023-05-18T17:30:18.512Z,100361.88
2023-05-18T17:32:50.302Z,100363.22
2023-05-18T17:35:18.109Z,100360.19
2023-05-18T17:37:46.400Z,100367.38
2023-05-18T17:40:14.453Z,100366.06
2023-05-18T17:42:42.101Z,100367.06
2023-05-18T17:45:11.902Z,100369.72
2023-05-18T17:47:41.472Z,100355.56
2023-05-18T17:50:09.808Z,100358.53
2023-05-18T17:52:37.466Z,100356.75
2023-05-18T17:55:06.532Z,100366.34
2023-05-18T17:57:35.029Z,100355.84
2023-05-18T18:00:03.898Z,100353.28
2023-05-18T18:02:41.520Z,100351.91
2023-05-18T18:05:10.962Z,100357.31
2023-05-18T18:07:40.758Z,100353.09
2023-05-18T18:10:10.076Z,100358.28
2023-05-18T18:12:37.867Z,100361.06
2023-05-18T18:15:06.094Z,100359.66
2023-05-18T18:17:34.322Z,100360.88
2023-05-18T18:20:05.569Z,100359.06
2023-05-18T18:22:35.606Z,100369.44
2023-05-18T18:25:03.455Z,100362.66
2023-05-18T18:27:31.046Z,100367.44
2023-05-18T18:29:58.613Z,100361.75
2023-05-18T18:32:26.696Z,100361.94
2023-05-18T18:34:54.727Z,100368.53
2023-05-18T18:37:23.911Z,100369.09
2023-05-18T18:39:51.884Z,100362.47
2023-05-18T18:42:21.493Z,100368.16
2023-05-18T18:44:52.792Z,100375.47
2023-05-18T18:47:20.679Z,100374.13
2023-05-18T18:49:48.254Z,100375.28
2023-05-18T18:52:16.008Z,100378.03
2023-05-18T18:54:45.200Z,100376.44
2023-05-18T18:57:13.077Z,100385.28
2023-05-18T18:59:40.694Z,100392.28
2023-05-18T19:02:08.777Z,100395.84
2023-05-18T19:04:36.520Z,100404.56
2023-05-18T19:07:04.730Z,100399.34
2023-05-18T19:09:36.070Z,100399.38
2023-05-18T19:12:05.676Z,100409.78
2023-05-18T19:14:33.289Z,100408.88
2023-05-18T19:17:00.964Z,100402.78
2023-05-18T19:19:29.440Z,100407.03
2023-05-18T19:21:57.108Z,100415.69
2023-05-18T19:24:24.696Z,100413.03
2023-05-18T19:26:52.383Z,100419.84
2023-05-18T19:29:21.585Z,100421.47
2023-05-18T19:31:49.237Z,100423.97
2023-05-18T19:34:16.901Z,100428.13
2023-05-18T19:36:44.631Z,100428.03
2023-05-18T19:39:12.583Z,100426.16
2023-05-18T19:41:40.218Z,100435.50
2023-05-18T19:44:07.869Z,100437.09
2023-05-18T19:46:37.304Z,100438.75
2023-05-18T19:49:06.565Z,100441.16
2023-05-18T19:51:34.570Z,100445.34
2023-05-18T19:54:02.205Z,100449.50
2023-05-18T19:56:30.055Z,100451.06
2023-05-18T19:58:58.370Z,100456.13
2023-05-18T20:01:26.080Z,100454.25
2023-05-18T20:03:56.725Z,100460.13
2023-05-18T20:06:24.372Z,100449.63
2023-05-18T20:08:51.965Z,100447.81
2023-05-18T20:11:19.564Z,100450.25
2023-05-18T20:13:47.135Z,100453.66
2023-05-18T20:16:15.659Z,100454.41
2023-05-18T20:18:43.341Z,100461.94
2023-05-18T20:21:12.402Z,100451.50
2023-05-18T20:23:39.984Z,100458.28
2023-05-18T20:26:07.750Z,100452.13
2023-05-18T20:28:36.533Z,100462.41
2023-05-18T20:31:04.132Z,100457.94
2023-05-18T20:33:34.232Z,100461.25
2023-05-18T20:36:01.926Z,100472.31
2023-05-18T20:38:30.861Z,100476.53
2023-05-18T20:40:59.514Z,100473.03
2023-05-18T20:43:27.117Z,100476.41
2023-05-18T20:45:55.842Z,100469.50
2023-05-18T20:48:26.630Z,100478.03
2023-05-18T20:50:54.536Z,100473.53
2023-05-18T20:53:22.183Z,100474.19
2023-05-18T20:55:54.031Z,100470.56
2023-05-18T20:58:22.188Z,100474.72
2023-05-18T21:00:50.846Z,100473.75
2023-05-18T21:03:19.967Z,100474.38
2023-05-18T21:05:49.540Z,100477.72
2023-05-18T21:08:17.324Z,100474.25
2023-05-18T21:10:44.976Z,100474.06
2023-05-18T21:13:14.945Z,100475.59
2023-05-18T21:15:42.659Z,100481.50
2023-05-18T21:18:10.461Z,100479.75
2023-05-18T21:20:38.176Z,100476.16
2023-05-18T21:23:05.837Z,100478.59
2023-05-18T21:25:33.418Z,100475.75
2023-05-18T21:28:01.097Z,100472.06
2023-05-18T21:30:31.651Z,100475.16
2023-05-18T21:32:59.551Z,100473.28
2023-05-18T21:35:28.275Z,100481.63
2023-05-18T21:37:55.864Z,100482.13
2023-05-18T21:40:23.536Z,100476.66
2023-05-18T21:42:51.131Z,100475.75
2023-05-18T21:45:20.655Z,100474.78
2023-05-18T21:47:50.761Z,100474.63
2023-05-18T21:50:19.036Z,100473.63
2023-05-18T21:52:46.830Z,100470.09
2023-05-18T21:55:14.511Z,100473.41
2023-05-18T21:57:42.152Z,100478.50
2023-05-18T22:00:12.185Z,100475.94
2023-05-18T22:02:42.542Z,100475.81
2023-05-18T22:05:11.782Z,100472.25
2023-05-18T22:07:39.506Z,100484.13
2023-05-18T22:10:07.909Z,100476.31
2023-05-18T22:12:37.418Z,100489.06
2023-05-18T22:15:05.855Z,100485.50
2023-05-18T22:17:34.168Z,100485.34
2023-05-18T22:20:01.855Z,100487.84
2023-05-18T22:22:31.063Z,100486.75
2023-05-18T22:24:58.778Z,100480.66
2023-05-18T22:27:26.583Z,100482.31
2023-05-18T22:29:54.211Z,100481.41
2023-05-18T22:32:22.057Z,100482.16
2023-05-18T22:34:49.900Z,100473.59
2023-05-18T22:37:17.504Z,100477.00
2023-05-18T22:39:46.496Z,100470.09
2023-05-18T22:42:14.064Z,100474.41
2023-05-18T22:44:41.672Z,100469.91
2023-05-18T22:47:09.845Z,100476.69
2023-05-18T22:49:37.568Z,100471.38
2023-05-18T22:52:06.504Z,100470.25
2023-05-18T22:54:34.081Z,100470.91
2023-05-18T22:57:03.023Z,100477.75
2023-05-18T22:59:30.656Z,100472.38
2023-05-18T23:01:58.346Z,100468.00
2023-05-18T23:04:25.976Z,100475.72
2023-05-18T23:06:54.572Z,100470.44
2023-05-18T23:09:22.224Z,100474.72
2023-05-18T23:11:52.249Z,100480.75
2023-05-18T23:14:21.999Z,100487.59
2023-05-18T23:16:50.060Z,100480.63
2023-05-18T23:19:19.833Z,100481.41
2023-05-18T23:21:47.786Z,100483.78
2023-05-18T23:24:15.891Z,100486.19
2023-05-18T23:26:44.317Z,100485.22
2023-05-18T23:29:12.299Z,100487.56
2023-05-18T23:31:41.299Z,100481.44
2023-05-18T23:34:09.370Z,100481.22
2023-05-18T23:36:39.608Z,100479.25
2023-05-18T23:39:07.846Z,100470.50
2023-05-18T23:41:37.057Z,100480.03
2023-05-18T23:44:06.465Z,100476.28
2023-05-18T23:46:35.533Z,100478.66
2023-05-18T23:49:05.227Z,100475.91
2023-05-18T23:51:36.217Z,100474.91
2023-05-18T23:54:07.077Z,100473.88
2023-05-18T23:56:35.362Z,100477.06
2023-05-18T23:59:03.629Z,100473.63
